Terminal Aerodrome Forecast
Issued by NWS

Home | Current Version | Previous Version | Text Only | Print | Product List | Glossary On
Versions: 1 2 3 4 5 6 7 8 9 10 11 12 13 14 15 16 17 18 19 20
000
FTUS43 KGRB 011700
TAFMTW
TAF
KMTW 011720Z 0118/0218 11008KT P6SM BKN120
     FM011900 15016G25KT P6SM SCT120
     FM020000 19013G20KT P6SM SCT040 BKN080 WS012/21045KT
      TEMPO 0210/0212 5SM -SHRA BR BKN020 OVC040
     FM021300 21012KT 4SM SHRA BR BKN015 OVC040
      TEMPO 0213/0216 2SM RA BR OVC015
     FM021600 28011G17KT 5SM -SHRA BR OVC035=

USA.gov is the U.S. government's official web portal to all federal, state and local government web resources and services.